sensor_id;sensor_type;location;lat;lon;timestamp;pressure;altitude;pressure_sealevel;temperature;humidity
34482;BME280;20720;48.886;9.388;2022-08-24T00:02:12;98477.03;;;19.09;100.00
34482;BME280;20720;48.886;9.388;2022-08-24T00:04:38;98478.97;;;19.40;100.00
34482;BME280;20720;48.886;9.388;2022-08-24T00:07:03;98482.97;;;19.16;100.00
34482;BME280;20720;48.886;9.388;2022-08-24T00:09:29;98477.50;;;19.28;100.00
34482;BME280;20720;48.886;9.388;2022-08-24T00:11:55;98486.13;;;19.61;100.00
34482;BME280;20720;48.886;9.388;2022-08-24T00:14:20;98488.25;;;19.64;100.00
34482;BME280;20720;48.886;9.388;2022-08-24T00:16:45;98487.22;;;19.65;100.00
34482;BME280;20720;48.886;9.388;2022-08-24T00:19:10;98479.19;;;19.60;100.00
34482;BME280;20720;48.886;9.388;2022-08-24T00:21:36;98481.09;;;19.38;100.00
34482;BME280;20720;48.886;9.388;2022-08-24T00:24:01;98484.38;;;19.24;100.00
34482;BME280;20720;48.886;9.388;2022-08-24T00:26:26;98480.09;;;19.23;100.00
34482;BME280;20720;48.886;9.388;2022-08-24T00:28:51;98477.91;;;18.93;100.00
34482;BME280;20720;48.886;9.388;2022-08-24T00:31:17;98479.03;;;18.97;100.00
34482;BME280;20720;48.886;9.388;2022-08-24T00:33:43;98480.13;;;19.01;100.00
34482;BME280;20720;48.886;9.388;2022-08-24T00:36:08;98482.78;;;19.01;100.00
34482;BME280;20720;48.886;9.388;2022-08-24T00:38:33;98476.50;;;18.64;100.00
34482;BME280;20720;48.886;9.388;2022-08-24T00:41:03;98471.47;;;18.67;100.00
34482;BME280;20720;48.886;9.388;2022-08-24T00:43:28;98471.84;;;18.76;100.00
34482;BME280;20720;48.886;9.388;2022-08-24T00:48:22;98470.41;;;18.68;100.00
34482;BME280;20720;48.886;9.388;2022-08-24T00:50:53;98470.63;;;18.45;100.00
34482;BME280;20720;48.886;9.388;2022-08-24T00:53:24;98473.84;;;18.64;100.00
34482;BME280;20720;48.886;9.388;2022-08-24T00:55:50;98470.09;;;18.65;100.00
34482;BME280;20720;48.886;9.388;2022-08-24T00:58:25;98460.94;;;18.56;100.00
34482;BME280;20720;48.886;9.388;2022-08-24T01:00:53;98468.97;;;18.61;100.00
34482;BME280;20720;48.886;9.388;2022-08-24T01:03:20;98463.47;;;18.46;100.00
34482;BME280;20720;48.886;9.388;2022-08-24T01:05:45;98459.69;;;18.25;100.00
34482;BME280;20720;48.886;9.388;2022-08-24T01:08:12;98460.31;;;18.32;100.00
34482;BME280;20720;48.886;9.388;2022-08-24T01:10:39;98466.22;;;18.18;100.00
34482;BME280;20720;48.886;9.388;2022-08-24T01:13:06;98461.81;;;18.07;100.00
34482;BME280;20720;48.886;9.388;2022-08-24T01:15:36;98464.41;;;18.02;100.00
34482;BME280;20720;48.886;9.388;2022-08-24T01:18:02;98460.03;;;18.12;100.00
34482;BME280;20720;48.886;9.388;2022-08-24T01:20:48;98463.09;;;18.04;100.00
34482;BME280;20720;48.886;9.388;2022-08-24T01:23:26;98463.00;;;18.16;100.00
34482;BME280;20720;48.886;9.388;2022-08-24T01:25:52;98459.78;;;18.14;100.00
34482;BME280;20720;48.886;9.388;2022-08-24T01:28:17;98460.91;;;18.18;100.00
34482;BME280;20720;48.886;9.388;2022-08-24T01:30:44;98463.41;;;18.08;100.00
34482;BME280;20720;48.886;9.388;2022-08-24T01:33:11;98460.06;;;17.96;100.00
34482;BME280;20720;48.886;9.388;2022-08-24T01:35:45;98448.97;;;17.37;100.00
34482;BME280;20720;48.886;9.388;2022-08-24T01:38:10;98449.41;;;17.62;100.00
34482;BME280;20720;48.886;9.388;2022-08-24T01:40:37;98449.59;;;17.72;100.00
34482;BME280;20720;48.886;9.388;2022-08-24T01:43:04;98460.28;;;17.77;100.00
34482;BME280;20720;48.886;9.388;2022-08-24T01:45:30;98454.41;;;17.75;100.00
34482;BME280;20720;48.886;9.388;2022-08-24T01:47:55;98461.03;;;17.73;100.00
34482;BME280;20720;48.886;9.388;2022-08-24T01:50:22;98463.91;;;17.71;100.00
34482;BME280;20720;48.886;9.388;2022-08-24T01:52:47;98467.84;;;17.52;100.00
34482;BME280;20720;48.886;9.388;2022-08-24T01:55:13;98472.75;;;17.60;100.00
34482;BME280;20720;48.886;9.388;2022-08-24T01:57:39;98456.44;;;17.40;100.00
34482;BME280;20720;48.886;9.388;2022-08-24T02:00:05;98450.25;;;17.07;100.00
34482;BME280;20720;48.886;9.388;2022-08-24T02:02:30;98452.00;;;17.29;100.00
34482;BME280;20720;48.886;9.388;2022-08-24T02:04:56;98457.59;;;17.44;100.00
34482;BME280;20720;48.886;9.388;2022-08-24T02:07:21;98446.03;;;17.50;100.00
34482;BME280;20720;48.886;9.388;2022-08-24T02:09:47;98449.97;;;17.48;100.00
34482;BME280;20720;48.886;9.388;2022-08-24T02:12:12;98442.41;;;17.28;100.00
34482;BME280;20720;48.886;9.388;2022-08-24T02:14:38;98449.66;;;17.33;100.00
34482;BME280;20720;48.886;9.388;2022-08-24T02:17:04;98435.91;;;17.36;100.00
34482;BME280;20720;48.886;9.388;2022-08-24T02:19:29;98448.84;;;17.32;100.00
34482;BME280;20720;48.886;9.388;2022-08-24T02:21:54;98453.59;;;17.58;100.00
34482;BME280;20720;48.886;9.388;2022-08-24T02:24:20;98458.50;;;17.66;100.00
34482;BME280;20720;48.886;9.388;2022-08-24T02:26:45;98463.75;;;17.61;100.00
34482;BME280;20720;48.886;9.388;2022-08-24T02:29:10;98464.97;;;17.42;100.00
34482;BME280;20720;48.886;9.388;2022-08-24T02:31:35;98455.59;;;17.51;100.00
34482;BME280;20720;48.886;9.388;2022-08-24T02:34:01;98456.81;;;17.60;100.00
34482;BME280;20720;48.886;9.388;2022-08-24T02:36:26;98461.00;;;17.56;100.00
34482;BME280;20720;48.886;9.388;2022-08-24T02:38:53;98455.50;;;17.46;100.00
34482;BME280;20720;48.886;9.388;2022-08-24T02:41:18;98453.03;;;17.28;100.00
34482;BME280;20720;48.886;9.388;2022-08-24T02:43:43;98451.91;;;17.24;100.00
34482;BME280;20720;48.886;9.388;2022-08-24T02:46:15;98444.50;;;17.26;100.00
34482;BME280;20720;48.886;9.388;2022-08-24T02:48:40;98448.59;;;17.17;100.00
34482;BME280;20720;48.886;9.388;2022-08-24T02:51:05;98438.91;;;17.11;100.00
34482;BME280;20720;48.886;9.388;2022-08-24T02:53:30;98438.91;;;17.11;100.00
34482;BME280;20720;48.886;9.388;2022-08-24T02:55:56;98440.53;;;16.84;100.00
34482;BME280;20720;48.886;9.388;2022-08-24T02:58:21;98426.94;;;16.80;100.00
34482;BME280;20720;48.886;9.388;2022-08-24T03:00:46;98431.53;;;16.85;100.00
34482;BME280;20720;48.886;9.388;2022-08-24T03:03:12;98428.88;;;16.85;100.00
34482;BME280;20720;48.886;9.388;2022-08-24T03:05:37;98424.00;;;16.93;100.00
34482;BME280;20720;48.886;9.388;2022-08-24T03:08:03;98433.81;;;16.93;100.00
34482;BME280;20720;48.886;9.388;2022-08-24T03:10:28;98430.41;;;16.98;100.00
34482;BME280;20720;48.886;9.388;2022-08-24T03:12:54;98428.25;;;16.66;100.00
34482;BME280;20720;48.886;9.388;2022-08-24T03:15:20;98410.75;;;16.42;100.00
34482;BME280;20720;48.886;9.388;2022-08-24T03:17:46;98414.06;;;16.61;100.00
34482;BME280;20720;48.886;9.388;2022-08-24T03:20:13;98404.59;;;16.65;100.00
34482;BME280;20720;48.886;9.388;2022-08-24T03:22:38;98401.97;;;16.42;100.00
34482;BME280;20720;48.886;9.388;2022-08-24T03:25:04;98396.44;;;16.55;100.00
34482;BME280;20720;48.886;9.388;2022-08-24T03:27:30;98399.69;;;16.34;100.00
34482;BME280;20720;48.886;9.388;2022-08-24T03:29:55;98402.97;;;16.64;100.00
34482;BME280;20720;48.886;9.388;2022-08-24T03:32:20;98416.75;;;16.89;100.00
34482;BME280;20720;48.886;9.388;2022-08-24T03:34:45;98415.00;;;16.55;100.00
34482;BME280;20720;48.886;9.388;2022-08-24T03:37:10;98418.00;;;16.86;100.00
34482;BME280;20720;48.886;9.388;2022-08-24T03:39:36;98423.66;;;16.90;100.00
34482;BME280;20720;48.886;9.388;2022-08-24T03:42:01;98426.22;;;16.85;100.00
34482;BME280;20720;48.886;9.388;2022-08-24T03:44:27;98413.78;;;16.74;100.00
34482;BME280;20720;48.886;9.388;2022-08-24T03:46:52;98415.84;;;16.83;100.00
34482;BME280;20720;48.886;9.388;2022-08-24T03:49:18;98416.78;;;16.77;100.00
34482;BME280;20720;48.886;9.388;2022-08-24T03:51:43;98413.75;;;16.57;100.00
34482;BME280;20720;48.886;9.388;2022-08-24T03:54:09;98418.34;;;16.50;100.00
34482;BME280;20720;48.886;9.388;2022-08-24T03:56:35;98412.50;;;16.48;100.00
34482;BME280;20720;48.886;9.388;2022-08-24T03:59:00;98413.75;;;16.34;100.00
34482;BME280;20720;48.886;9.388;2022-08-24T04:01:25;98410.63;;;16.26;100.00
34482;BME280;20720;48.886;9.388;2022-08-24T04:03:51;98397.63;;;16.24;100.00
34482;BME280;20720;48.886;9.388;2022-08-24T04:06:18;98401.09;;;16.25;100.00
34482;BME280;20720;48.886;9.388;2022-08-24T04:08:44;98409.03;;;16.25;100.00
34482;BME280;20720;48.886;9.388;2022-08-24T04:11:11;98408.38;;;16.18;100.00
34482;BME280;20720;48.886;9.388;2022-08-24T04:13:36;98403.16;;;16.11;100.00
34482;BME280;20720;48.886;9.388;2022-08-24T04:16:08;98411.13;;;16.23;100.00
34482;BME280;20720;48.886;9.388;2022-08-24T04:18:34;98404.09;;;16.17;100.00
34482;BME280;20720;48.886;9.388;2022-08-24T04:20:59;98411.00;;;16.18;100.00
34482;BME280;20720;48.886;9.388;2022-08-24T04:23:24;98401.44;;;15.93;100.00
34482;BME280;20720;48.886;9.388;2022-08-24T04:25:50;98393.38;;;16.12;100.00
34482;BME280;20720;48.886;9.388;2022-08-24T04:28:16;98400.59;;;16.28;100.00
34482;BME280;20720;48.886;9.388;2022-08-24T04:30:45;98409.72;;;16.32;100.00
34482;BME280;20720;48.886;9.388;2022-08-24T04:33:14;98408.81;;;16.15;100.00
34482;BME280;20720;48.886;9.388;2022-08-24T04:35:42;98418.25;;;16.34;100.00
34482;BME280;20720;48.886;9.388;2022-08-24T04:38:09;98425.38;;;16.45;100.00
34482;BME280;20720;48.886;9.388;2022-08-24T04:40:37;98429.31;;;16.54;100.00
34482;BME280;20720;48.886;9.388;2022-08-24T04:43:02;98430.09;;;16.43;100.00
34482;BME280;20720;48.886;9.388;2022-08-24T04:45:27;98435.78;;;16.35;100.00
34482;BME280;20720;48.886;9.388;2022-08-24T04:47:53;98434.06;;;16.52;100.00
34482;BME280;20720;48.886;9.388;2022-08-24T04:50:18;98443.59;;;16.53;100.00
34482;BME280;20720;48.886;9.388;2022-08-24T04:52:43;98449.41;;;16.50;100.00
34482;BME280;20720;48.886;9.388;2022-08-24T04:55:08;98446.84;;;16.32;100.00
34482;BME280;20720;48.886;9.388;2022-08-24T04:57:34;98454.34;;;16.46;100.00
34482;BME280;20720;48.886;9.388;2022-08-24T04:59:59;98455.59;;;16.67;100.00
34482;BME280;20720;48.886;9.388;2022-08-24T05:02:24;98463.63;;;16.72;100.00
34482;BME280;20720;48.886;9.388;2022-08-24T05:04:49;98463.06;;;16.70;100.00
34482;BME280;20720;48.886;9.388;2022-08-24T05:07:15;98465.25;;;16.73;100.00
34482;BME280;20720;48.886;9.388;2022-08-24T05:09:42;98464.50;;;16.89;100.00
34482;BME280;20720;48.886;9.388;2022-08-24T05:12:07;98473.81;;;17.03;100.00
34482;BME280;20720;48.886;9.388;2022-08-24T05:14:32;98476.56;;;17.08;100.00
34482;BME280;20720;48.886;9.388;2022-08-24T05:16:57;98485.47;;;17.02;100.00
34482;BME280;20720;48.886;9.388;2022-08-24T05:19:23;98480.13;;;16.74;100.00
34482;BME280;20720;48.886;9.388;2022-08-24T05:21:48;98492.41;;;17.31;100.00
34482;BME280;20720;48.886;9.388;2022-08-24T05:24:13;98494.81;;;17.61;100.00
34482;BME280;20720;48.886;9.388;2022-08-24T05:26:38;98500.91;;;17.73;100.00
34482;BME280;20720;48.886;9.388;2022-08-24T05:29:04;98497.28;;;17.96;100.00
34482;BME280;20720;48.886;9.388;2022-08-24T05:31:30;98506.28;;;18.11;100.00
34482;BME280;20720;48.886;9.388;2022-08-24T05:33:56;98510.13;;;18.37;100.00
34482;BME280;20720;48.886;9.388;2022-08-24T05:36:23;98513.84;;;18.36;100.00
34482;BME280;20720;48.886;9.388;2022-08-24T05:38:49;98512.09;;;18.41;100.00
34482;BME280;20720;48.886;9.388;2022-08-24T05:41:16;98516.53;;;18.74;100.00
34482;BME280;20720;48.886;9.388;2022-08-24T05:43:41;98527.56;;;19.04;100.00
34482;BME280;20720;48.886;9.388;2022-08-24T05:46:06;98527.53;;;19.21;100.00
34482;BME280;20720;48.886;9.388;2022-08-24T05:48:32;98532.78;;;19.37;100.00
34482;BME280;20720;48.886;9.388;2022-08-24T05:50:59;98541.13;;;19.46;100.00
34482;BME280;20720;48.886;9.388;2022-08-24T05:53:25;98541.69;;;19.75;100.00
34482;BME280;20720;48.886;9.388;2022-08-24T05:55:50;98536.00;;;19.93;100.00
34482;BME280;20720;48.886;9.388;2022-08-24T05:58:15;98545.09;;;19.97;100.00
34482;BME280;20720;48.886;9.388;2022-08-24T06:00:40;98553.41;;;20.27;100.00
34482;BME280;20720;48.886;9.388;2022-08-24T06:03:06;98555.00;;;20.28;100.00
34482;BME280;20720;48.886;9.388;2022-08-24T06:05:31;98558.97;;;20.62;100.00
34482;BME280;20720;48.886;9.388;2022-08-24T06:07:56;98568.13;;;20.76;100.00
34482;BME280;20720;48.886;9.388;2022-08-24T06:10:22;98562.56;;;20.83;100.00
34482;BME280;20720;48.886;9.388;2022-08-24T06:12:47;98567.88;;;21.24;100.00
34482;BME280;20720;48.886;9.388;2022-08-24T06:15:12;98571.69;;;21.48;100.00
34482;BME280;20720;48.886;9.388;2022-08-24T06:17:37;98572.31;;;21.71;99.43
34482;BME280;20720;48.886;9.388;2022-08-24T06:20:03;98575.28;;;21.84;96.54
34482;BME280;20720;48.886;9.388;2022-08-24T06:22:28;98582.28;;;22.00;94.71
34482;BME280;20720;48.886;9.388;2022-08-24T06:24:53;98576.66;;;22.12;92.46
34482;BME280;20720;48.886;9.388;2022-08-24T06:27:37;98581.75;;;22.43;91.94
34482;BME280;20720;48.886;9.388;2022-08-24T06:30:05;98595.44;;;22.67;89.73
34482;BME280;20720;48.886;9.388;2022-08-24T06:32:30;98590.00;;;22.92;86.53
34482;BME280;20720;48.886;9.388;2022-08-24T06:34:56;98592.66;;;23.12;85.23
34482;BME280;20720;48.886;9.388;2022-08-24T06:37:22;98587.22;;;23.22;84.87
34482;BME280;20720;48.886;9.388;2022-08-24T06:39:51;98597.59;;;23.49;83.11
34482;BME280;20720;48.886;9.388;2022-08-24T06:42:16;98595.94;;;22.79;86.90
34482;BME280;20720;48.886;9.388;2022-08-24T06:44:41;98597.03;;;22.58;90.74
34482;BME280;20720;48.886;9.388;2022-08-24T06:47:06;98597.91;;;23.38;85.31
34482;BME280;20720;48.886;9.388;2022-08-24T06:49:32;98602.19;;;23.44;84.76
34482;BME280;20720;48.886;9.388;2022-08-24T06:51:57;98599.25;;;23.89;82.53
34482;BME280;20720;48.886;9.388;2022-08-24T06:54:22;98604.44;;;23.75;82.72
34482;BME280;20720;48.886;9.388;2022-08-24T06:56:47;98609.44;;;23.97;79.81
34482;BME280;20720;48.886;9.388;2022-08-24T06:59:13;98611.59;;;23.95;81.04
34482;BME280;20720;48.886;9.388;2022-08-24T07:01:38;98621.03;;;24.31;80.67
34482;BME280;20720;48.886;9.388;2022-08-24T07:04:03;98613.72;;;24.70;77.33
34482;BME280;20720;48.886;9.388;2022-08-24T07:06:28;98623.31;;;24.14;79.06
34482;BME280;20720;48.886;9.388;2022-08-24T07:08:54;98626.84;;;25.05;75.34
34482;BME280;20720;48.886;9.388;2022-08-24T07:11:20;98611.13;;;25.36;72.66
34482;BME280;20720;48.886;9.388;2022-08-24T07:13:46;98614.88;;;26.01;70.50
34482;BME280;20720;48.886;9.388;2022-08-24T07:16:12;98622.69;;;24.89;75.25
34482;BME280;20720;48.886;9.388;2022-08-24T07:18:38;98630.63;;;25.75;71.14
34482;BME280;20720;48.886;9.388;2022-08-24T07:21:04;98627.50;;;25.87;71.38
34482;BME280;20720;48.886;9.388;2022-08-24T07:23:30;98628.56;;;26.04;68.18
34482;BME280;20720;48.886;9.388;2022-08-24T07:25:56;98628.69;;;26.50;66.38
34482;BME280;20720;48.886;9.388;2022-08-24T07:28:21;98636.00;;;25.75;65.80
34482;BME280;20720;48.886;9.388;2022-08-24T07:30:47;98632.31;;;26.59;65.15
34482;BME280;20720;48.886;9.388;2022-08-24T07:33:12;98631.41;;;27.55;60.06
34482;BME280;20720;48.886;9.388;2022-08-24T07:35:37;98633.81;;;27.57;60.20
34482;BME280;20720;48.886;9.388;2022-08-24T07:38:03;98635.97;;;27.01;61.10
34482;BME280;20720;48.886;9.388;2022-08-24T07:40:30;98632.97;;;27.16;61.07
34482;BME280;20720;48.886;9.388;2022-08-24T07:42:56;98640.09;;;27.25;60.97
34482;BME280;20720;48.886;9.388;2022-08-24T07:45:22;98634.66;;;27.12;60.57
34482;BME280;20720;48.886;9.388;2022-08-24T07:47:47;98637.94;;;26.81;61.00
34482;BME280;20720;48.886;9.388;2022-08-24T07:50:13;98640.56;;;27.14;61.49
34482;BME280;20720;48.886;9.388;2022-08-24T07:52:38;98631.00;;;27.48;59.06
34482;BME280;20720;48.886;9.388;2022-08-24T07:55:04;98645.03;;;27.86;56.61
34482;BME280;20720;48.886;9.388;2022-08-24T07:57:30;98640.84;;;27.94;58.36
34482;BME280;20720;48.886;9.388;2022-08-24T07:59:57;98642.09;;;28.45;55.79
34482;BME280;20720;48.886;9.388;2022-08-24T08:02:22;98641.38;;;27.82;54.28
34482;BME280;20720;48.886;9.388;2022-08-24T08:04:47;98637.28;;;28.87;53.75
34482;BME280;20720;48.886;9.388;2022-08-24T08:07:12;98635.16;;;29.84;50.99
34482;BME280;20720;48.886;9.388;2022-08-24T08:09:38;98638.22;;;30.00;50.22
34482;BME280;20720;48.886;9.388;2022-08-24T08:12:03;98645.19;;;30.78;48.55
34482;BME280;20720;48.886;9.388;2022-08-24T08:14:28;98636.19;;;30.39;48.40
34482;BME280;20720;48.886;9.388;2022-08-24T08:16:54;98636.81;;;31.17;48.63
34482;BME280;20720;48.886;9.388;2022-08-24T08:19:19;98629.91;;;31.86;45.83
34482;BME280;20720;48.886;9.388;2022-08-24T08:21:46;98634.03;;;30.71;47.20
34482;BME280;20720;48.886;9.388;2022-08-24T08:24:31;98633.22;;;30.79;47.87
34482;BME280;20720;48.886;9.388;2022-08-24T08:26:56;98622.28;;;30.32;49.36
34482;BME280;20720;48.886;9.388;2022-08-24T08:29:22;98621.38;;;28.85;53.01
34482;BME280;20720;48.886;9.388;2022-08-24T08:31:48;98630.97;;;31.44;47.42
34482;BME280;20720;48.886;9.388;2022-08-24T08:34:13;98627.16;;;32.69;44.89
34482;BME280;20720;48.886;9.388;2022-08-24T08:36:39;98621.53;;;32.86;45.64
34482;BME280;20720;48.886;9.388;2022-08-24T08:39:06;98614.13;;;33.67;42.75
34482;BME280;20720;48.886;9.388;2022-08-24T08:44:04;98611.81;;;31.40;44.90
34482;BME280;20720;48.886;9.388;2022-08-24T08:46:36;98620.03;;;32.76;44.56
34482;BME280;20720;48.886;9.388;2022-08-24T08:51:46;98617.25;;;34.17;41.37
34482;BME280;20720;48.886;9.388;2022-08-24T08:54:28;98625.13;;;34.90;38.97
34482;BME280;20720;48.886;9.388;2022-08-24T08:57:03;98610.34;;;33.96;39.73
34482;BME280;20720;48.886;9.388;2022-08-24T09:07:49;98604.81;;;31.60;44.33
34482;BME280;20720;48.886;9.388;2022-08-24T09:12:49;98595.47;;;31.49;45.59
34482;BME280;20720;48.886;9.388;2022-08-24T09:17:57;98585.25;;;30.02;47.15
34482;BME280;20720;48.886;9.388;2022-08-24T09:25:51;98603.56;;;31.78;42.68
34482;BME280;20720;48.886;9.388;2022-08-24T09:33:40;98601.41;;;33.35;41.06
34482;BME280;20720;48.886;9.388;2022-08-24T09:36:12;98597.53;;;31.14;41.11
34482;BME280;20720;48.886;9.388;2022-08-24T09:38:56;98593.47;;;32.61;39.18
34482;BME280;20720;48.886;9.388;2022-08-24T09:49:26;98598.56;;;33.07;38.24
34482;BME280;20720;48.886;9.388;2022-08-24T09:52:08;98590.66;;;32.70;38.08
34482;BME280;20720;48.886;9.388;2022-08-24T09:58:00;98582.47;;;33.51;35.92
34482;BME280;20720;48.886;9.388;2022-08-24T10:00:05;98586.75;;;34.86;36.26
34482;BME280;20720;48.886;9.388;2022-08-24T10:08:12;98581.31;;;35.33;35.73
34482;BME280;20720;48.886;9.388;2022-08-24T10:13:24;98576.50;;;35.77;34.08
34482;BME280;20720;48.886;9.388;2022-08-24T10:21:08;98561.91;;;33.53;37.10
34482;BME280;20720;48.886;9.388;2022-08-24T10:36:48;98564.66;;;33.93;37.20
34482;BME280;20720;48.886;9.388;2022-08-24T10:39:37;98562.50;;;33.86;36.65
34482;BME280;20720;48.886;9.388;2022-08-24T10:55:29;98546.94;;;34.70;36.13
34482;BME280;20720;48.886;9.388;2022-08-24T11:00:27;98545.81;;;35.18;35.18
34482;BME280;20720;48.886;9.388;2022-08-24T11:03:04;98546.31;;;34.92;35.49
34482;BME280;20720;48.886;9.388;2022-08-24T11:05:32;98555.56;;;33.25;36.93
34482;BME280;20720;48.886;9.388;2022-08-24T11:08:00;98553.97;;;34.86;36.03
34482;BME280;20720;48.886;9.388;2022-08-24T11:10:37;98550.41;;;34.11;35.16
34482;BME280;20720;48.886;9.388;2022-08-24T11:13:23;98552.22;;;34.35;34.85
34482;BME280;20720;48.886;9.388;2022-08-24T11:15:51;98554.72;;;35.15;34.41
34482;BME280;20720;48.886;9.388;2022-08-24T11:18:16;98550.63;;;35.74;34.73
34482;BME280;20720;48.886;9.388;2022-08-24T11:20:43;98557.28;;;37.96;31.51
34482;BME280;20720;48.886;9.388;2022-08-24T11:23:21;98544.16;;;36.21;32.46
34482;BME280;20720;48.886;9.388;2022-08-24T11:26:06;98543.66;;;33.93;34.91
34482;BME280;20720;48.886;9.388;2022-08-24T11:28:36;98540.78;;;35.04;34.09
34482;BME280;20720;48.886;9.388;2022-08-24T11:31:18;98534.41;;;35.66;33.54
34482;BME280;20720;48.886;9.388;2022-08-24T11:33:45;98531.63;;;38.95;29.65
34482;BME280;20720;48.886;9.388;2022-08-24T11:36:15;98544.16;;;36.21;32.03
34482;BME280;20720;48.886;9.388;2022-08-24T11:38:40;98535.69;;;37.68;30.13
34482;BME280;20720;48.886;9.388;2022-08-24T11:41:10;98526.25;;;37.36;29.88
34482;BME280;20720;48.886;9.388;2022-08-24T11:49:06;98527.19;;;39.27;28.91
34482;BME280;20720;48.886;9.388;2022-08-24T11:57:07;98520.78;;;34.69;32.18
34482;BME280;20720;48.886;9.388;2022-08-24T11:59:36;98519.84;;;33.66;34.13
34482;BME280;20720;48.886;9.388;2022-08-24T12:02:04;98513.13;;;34.31;32.75
34482;BME280;20720;48.886;9.388;2022-08-24T12:04:45;98519.34;;;34.90;32.82
34482;BME280;20720;48.886;9.388;2022-08-24T12:07:16;98524.91;;;34.94;32.51
34482;BME280;20720;48.886;9.388;2022-08-24T12:09:51;98535.38;;;36.12;31.38
34482;BME280;20720;48.886;9.388;2022-08-24T12:12:26;98527.72;;;35.29;32.51
34482;BME280;20720;48.886;9.388;2022-08-24T12:17:29;98519.03;;;33.78;33.22
34482;BME280;20720;48.886;9.388;2022-08-24T12:19:58;98515.50;;;38.50;29.33
34482;BME280;20720;48.886;9.388;2022-08-24T12:22:25;98511.09;;;34.28;32.60
34482;BME280;20720;48.886;9.388;2022-08-24T12:24:53;98508.66;;;35.32;32.44
34482;BME280;20720;48.886;9.388;2022-08-24T12:27:31;98512.50;;;34.38;31.92
34482;BME280;20720;48.886;9.388;2022-08-24T12:30:06;98508.00;;;37.47;29.76
34482;BME280;20720;48.886;9.388;2022-08-24T12:42:37;98500.09;;;35.68;32.33
34482;BME280;20720;48.886;9.388;2022-08-24T12:45:22;98497.41;;;35.53;32.30
34482;BME280;20720;48.886;9.388;2022-08-24T12:47:49;98496.59;;;33.96;34.94
34482;BME280;20720;48.886;9.388;2022-08-24T12:55:34;98497.16;;;33.62;35.85
34482;BME280;20720;48.886;9.388;2022-08-24T13:00:55;98496.59;;;33.84;35.17
34482;BME280;20720;48.886;9.388;2022-08-24T13:03:25;98498.34;;;33.77;35.21
34482;BME280;20720;48.886;9.388;2022-08-24T13:05:56;98492.44;;;33.11;36.79
34482;BME280;20720;48.886;9.388;2022-08-24T13:08:36;98496.47;;;34.48;35.29
34482;BME280;20720;48.886;9.388;2022-08-24T13:11:06;98496.66;;;34.28;34.84
34482;BME280;20720;48.886;9.388;2022-08-24T13:13:48;98488.84;;;32.95;37.33
34482;BME280;20720;48.886;9.388;2022-08-24T13:26:54;98477.56;;;33.33;36.79
34482;BME280;20720;48.886;9.388;2022-08-24T13:29:20;98477.31;;;33.77;35.87
34482;BME280;20720;48.886;9.388;2022-08-24T13:31:49;98477.84;;;34.85;34.94
34482;BME280;20720;48.886;9.388;2022-08-24T13:42:05;98474.22;;;33.51;37.22
34482;BME280;20720;48.886;9.388;2022-08-24T14:00:16;98469.06;;;34.76;36.03
34482;BME280;20720;48.886;9.388;2022-08-24T14:02:59;98474.94;;;36.62;33.84
34482;BME280;20720;48.886;9.388;2022-08-24T14:10:35;98472.25;;;39.41;31.11
34482;BME280;20720;48.886;9.388;2022-08-24T14:26:49;98457.06;;;34.96;38.15
34482;BME280;20720;48.886;9.388;2022-08-24T14:29:19;98450.03;;;36.06;36.63
34482;BME280;20720;48.886;9.388;2022-08-24T14:31:41;98438.34;;;35.67;37.23
34482;BME280;20720;48.886;9.388;2022-08-24T14:45:22;98444.41;;;37.71;33.10
34482;BME280;20720;48.886;9.388;2022-08-24T14:50:23;98433.72;;;39.38;31.75
34482;BME280;20720;48.886;9.388;2022-08-24T15:00:48;98433.38;;;35.19;38.32
34482;BME280;20720;48.886;9.388;2022-08-24T15:06:10;98430.81;;;36.70;36.66
34482;BME280;20720;48.886;9.388;2022-08-24T15:08:43;98432.59;;;36.37;35.42
34482;BME280;20720;48.886;9.388;2022-08-24T15:11:13;98430.97;;;34.83;38.24
34482;BME280;20720;48.886;9.388;2022-08-24T15:13:42;98429.13;;;37.11;34.19
34482;BME280;20720;48.886;9.388;2022-08-24T15:18:48;98418.00;;;35.87;35.46
34482;BME280;20720;48.886;9.388;2022-08-24T15:29:25;98425.94;;;34.85;41.15
34482;BME280;20720;48.886;9.388;2022-08-24T15:31:59;98417.09;;;34.57;39.98
34482;BME280;20720;48.886;9.388;2022-08-24T15:34:31;98422.06;;;33.80;41.51
34482;BME280;20720;48.886;9.388;2022-08-24T15:36:59;98419.81;;;33.55;41.90
34482;BME280;20720;48.886;9.388;2022-08-24T15:39:26;98415.16;;;33.55;42.14
34482;BME280;20720;48.886;9.388;2022-08-24T15:41:51;98418.56;;;34.70;40.08
34482;BME280;20720;48.886;9.388;2022-08-24T15:44:21;98426.84;;;34.73;40.57
34482;BME280;20720;48.886;9.388;2022-08-24T15:46:48;98426.13;;;36.45;37.81
34482;BME280;20720;48.886;9.388;2022-08-24T15:49:20;98424.03;;;39.76;33.26
34482;BME280;20720;48.886;9.388;2022-08-24T15:51:51;98426.03;;;36.19;37.56
34482;BME280;20720;48.886;9.388;2022-08-24T15:56:59;98423.94;;;35.70;39.00
34482;BME280;20720;48.886;9.388;2022-08-24T16:01:54;98429.41;;;38.79;34.69
34482;BME280;20720;48.886;9.388;2022-08-24T16:04:40;98422.13;;;36.65;37.34
34482;BME280;20720;48.886;9.388;2022-08-24T16:07:06;98422.16;;;35.05;40.40
34482;BME280;20720;48.886;9.388;2022-08-24T16:09:36;98420.59;;;34.73;41.19
34482;BME280;20720;48.886;9.388;2022-08-24T16:12:15;98432.88;;;32.49;47.08
34482;BME280;20720;48.886;9.388;2022-08-24T16:14:46;98420.00;;;32.13;50.07
34482;BME280;20720;48.886;9.388;2022-08-24T16:19:48;98423.94;;;34.97;42.54
34482;BME280;20720;48.886;9.388;2022-08-24T16:22:14;98425.22;;;35.76;39.62
34482;BME280;20720;48.886;9.388;2022-08-24T16:24:48;98431.63;;;36.26;39.14
34482;BME280;20720;48.886;9.388;2022-08-24T16:27:50;98431.19;;;36.69;38.16
34482;BME280;20720;48.886;9.388;2022-08-24T16:30:20;98418.25;;;35.79;39.55
34482;BME280;20720;48.886;9.388;2022-08-24T16:32:51;98430.81;;;36.93;38.00